createdAt,value
2023-05-05T00:00:53.495Z,70.85
2023-05-05T00:03:26.046Z,70.95
2023-05-05T00:05:55.298Z,70.65
2023-05-05T00:08:23.765Z,70.90
2023-05-05T00:10:53.942Z,70.88
2023-05-05T00:13:22.135Z,70.75
2023-05-05T00:15:51.233Z,70.87
2023-05-05T00:18:19.800Z,70.98
2023-05-05T00:20:49.277Z,71.09
2023-05-05T00:23:18.170Z,71.22
2023-05-05T00:25:45.807Z,71.05
2023-05-05T00:28:14.084Z,71.47
2023-05-05T00:30:46.995Z,71.64
2023-05-05T00:33:14.701Z,72.26
2023-05-05T00:35:42.446Z,71.91
2023-05-05T00:38:12.917Z,72.16
2023-05-05T00:40:40.608Z,71.82
2023-05-05T00:43:10.014Z,72.13
2023-05-05T00:45:41.691Z,71.77
2023-05-05T00:48:10.049Z,71.79
2023-05-05T00:50:38.340Z,71.84
2023-05-05T00:53:07.933Z,72.58
2023-05-05T00:55:37.494Z,72.51
2023-05-05T00:58:05.769Z,72.28
2023-05-05T01:00:34.177Z,72.39
2023-05-05T01:03:01.950Z,72.53
2023-05-05T01:05:38.925Z,72.34
2023-05-05T01:08:24.181Z,72.10
2023-05-05T01:10:58.941Z,72.54
2023-05-05T01:13:33.938Z,72.55
2023-05-05T01:16:08.056Z,72.44
2023-05-05T01:18:42.252Z,73.05
2023-05-05T01:21:16.017Z,73.13
2023-05-05T01:24:28.117Z,74.09
2023-05-05T01:27:09.286Z,73.79
2023-05-05T01:30:02.984Z,74.00
2023-05-05T01:32:37.133Z,73.74
2023-05-05T01:35:14.660Z,74.12
2023-05-05T01:38:12.578Z,73.65
2023-05-05T01:40:45.993Z,73.98
2023-05-05T01:43:18.641Z,74.53
2023-05-05T01:45:52.028Z,74.43
2023-05-05T01:48:23.000Z,74.26
2023-05-05T01:50:52.495Z,74.60
2023-05-05T01:53:22.746Z,75.63
2023-05-05T01:55:51.467Z,76.24
2023-05-05T01:58:19.994Z,76.57
2023-05-05T02:00:48.873Z,76.81
2023-05-05T02:03:18.145Z,77.34
2023-05-05T02:05:48.462Z,77.68
2023-05-05T02:08:16.802Z,77.94
2023-05-05T02:10:46.105Z,77.99
2023-05-05T02:13:15.393Z,77.30
2023-05-05T02:15:45.013Z,77.32
2023-05-05T02:18:13.532Z,77.23
2023-05-05T02:20:42.204Z,77.05
2023-05-05T02:23:11.162Z,77.18
2023-05-05T02:25:42.860Z,76.90
2023-05-05T02:28:18.113Z,76.09
2023-05-05T02:30:52.948Z,76.59
2023-05-05T02:33:23.513Z,76.34
2023-05-05T02:35:54.529Z,76.96
2023-05-05T02:38:29.576Z,77.17
2023-05-05T02:41:04.323Z,77.01
2023-05-05T02:46:29.318Z,77.23
2023-05-05T02:48:59.553Z,78.03
2023-05-05T02:51:28.726Z,79.01
2023-05-05T02:54:01.942Z,79.75
2023-05-05T02:56:41.551Z,79.95
2023-05-05T02:59:16.946Z,80.36
2023-05-05T03:01:58.038Z,80.92
2023-05-05T03:04:30.943Z,80.88
2023-05-05T03:07:00.914Z,80.32
2023-05-05T03:09:38.649Z,80.09
2023-05-05T03:12:13.002Z,80.64
2023-05-05T03:15:01.681Z,81.30
2023-05-05T03:17:33.593Z,81.89
2023-05-05T03:20:04.487Z,82.81
2023-05-05T03:22:36.753Z,83.48
2023-05-05T03:25:07.966Z,84.09
2023-05-05T03:27:35.914Z,83.96
2023-05-05T03:30:04.505Z,84.23
2023-05-05T03:32:34.015Z,84.74
2023-05-05T03:35:02.205Z,84.95
2023-05-05T03:37:33.742Z,85.12
2023-05-05T03:40:03.110Z,85.62
2023-05-05T03:42:34.969Z,85.75
2023-05-05T03:45:02.769Z,85.83
2023-05-05T03:47:32.017Z,85.41
2023-05-05T03:50:00.646Z,84.96
2023-05-05T03:52:28.992Z,84.16
2023-05-05T03:55:00.170Z,83.62
2023-05-05T03:57:28.808Z,83.32
2023-05-05T03:59:57.952Z,83.23
2023-05-05T04:02:26.143Z,83.77
2023-05-05T04:04:54.597Z,84.85
2023-05-05T04:07:23.933Z,85.66
2023-05-05T04:09:51.888Z,86.77
2023-05-05T04:12:19.788Z,86.82
2023-05-05T04:14:47.576Z,87.30
2023-05-05T04:17:20.927Z,87.73
2023-05-05T04:19:50.326Z,87.97
2023-05-05T04:22:18.949Z,87.68
2023-05-05T04:24:47.115Z,88.02
2023-05-05T04:27:14.742Z,88.35
2023-05-05T04:29:42.639Z,88.03
2023-05-05T04:32:11.177Z,87.82
2023-05-05T04:34:41.338Z,87.72
2023-05-05T04:37:09.282Z,87.49
2023-05-05T04:39:37.923Z,86.50
2023-05-05T04:42:06.452Z,86.68
2023-05-05T04:44:34.650Z,88.32
2023-05-05T04:47:03.068Z,89.84
2023-05-05T04:49:31.968Z,90.53
2023-05-05T04:52:01.035Z,90.57
2023-05-05T04:54:28.762Z,90.12
2023-05-05T04:56:56.486Z,89.66
2023-05-05T04:59:25.333Z,89.07
2023-05-05T05:01:52.958Z,88.30
2023-05-05T05:04:23.037Z,87.94
2023-05-05T05:06:52.587Z,87.71
2023-05-05T05:09:46.854Z,87.32
2023-05-05T05:12:14.529Z,87.48
2023-05-05T05:14:42.503Z,88.93
2023-05-05T05:17:10.795Z,92.05
2023-05-05T05:19:39.114Z,94.20
2023-05-05T05:22:06.696Z,95.52
2023-05-05T05:24:39.780Z,95.35
2023-05-05T05:27:10.198Z,94.62
2023-05-05T05:29:42.018Z,94.16
2023-05-05T05:32:11.630Z,94.12
2023-05-05T05:34:39.670Z,94.42
2023-05-05T05:37:09.361Z,94.87
2023-05-05T05:39:37.662Z,95.19
2023-05-05T05:42:07.748Z,94.93
2023-05-05T05:44:35.346Z,94.30
2023-05-05T05:47:03.101Z,94.71
2023-05-05T05:49:32.958Z,95.41
2023-05-05T05:52:00.654Z,95.51
2023-05-05T05:54:28.332Z,96.05
2023-05-05T05:56:56.084Z,95.28
2023-05-05T05:59:25.031Z,95.77
2023-05-05T06:01:53.333Z,95.65
2023-05-05T06:04:21.042Z,95.12
2023-05-05T06:06:49.660Z,94.87
2023-05-05T06:09:17.690Z,93.92
2023-05-05T06:11:46.372Z,93.72
2023-05-05T06:14:15.026Z,93.13
2023-05-05T06:16:44.141Z,92.64
2023-05-05T06:19:16.112Z,92.27
2023-05-05T06:21:44.416Z,92.13
2023-05-05T06:24:13.691Z,92.05
2023-05-05T06:26:41.939Z,91.41
2023-05-05T06:29:12.240Z,91.41
2023-05-05T06:31:40.208Z,91.41
2023-05-05T06:34:09.950Z,91.16
2023-05-05T06:36:39.053Z,90.61
2023-05-05T06:39:07.092Z,90.47
2023-05-05T06:41:36.032Z,89.75
2023-05-05T06:44:03.630Z,89.60
2023-05-05T06:46:31.942Z,89.38
2023-05-05T06:49:01.068Z,89.05
2023-05-05T06:51:31.259Z,87.91
2023-05-05T06:53:58.971Z,87.41
2023-05-05T06:56:27.942Z,86.79
2023-05-05T06:58:56.429Z,86.62
2023-05-05T07:01:24.490Z,86.49
2023-05-05T07:03:52.308Z,85.51
2023-05-05T07:06:23.956Z,84.43
2023-05-05T07:08:53.429Z,83.57
2023-05-05T07:11:21.072Z,83.22
2023-05-05T07:13:49.293Z,82.48
2023-05-05T07:16:17.524Z,82.74
2023-05-05T07:18:45.271Z,81.79
2023-05-05T07:21:12.814Z,78.42
2023-05-05T07:23:41.430Z,79.38
2023-05-05T07:26:10.476Z,79.84
2023-05-05T07:28:39.611Z,78.19
2023-05-05T07:31:07.453Z,77.73
2023-05-05T07:33:35.055Z,76.14
2023-05-05T07:36:05.245Z,76.35
2023-05-05T07:38:32.883Z,76.83
2023-05-05T07:41:00.425Z,75.39
2023-05-05T07:43:29.492Z,73.24
2023-05-05T07:45:57.187Z,73.50
2023-05-05T07:48:25.950Z,72.36
2023-05-05T07:50:54.778Z,71.42
2023-05-05T07:53:23.478Z,70.99
2023-05-05T07:56:16.967Z,71.10
2023-05-05T07:58:46.791Z,69.57
2023-05-05T08:01:39.941Z,69.94
2023-05-05T08:04:08.614Z,69.16
2023-05-05T08:06:36.969Z,69.71
2023-05-05T08:09:04.705Z,69.50
2023-05-05T08:11:32.962Z,68.15
2023-05-05T08:14:02.777Z,67.93
2023-05-05T08:16:30.600Z,67.65
2023-05-05T08:18:58.174Z,66.56
2023-05-05T08:21:25.788Z,66.32
2023-05-05T08:26:45.209Z,68.29
2023-05-05T08:29:14.959Z,67.63
2023-05-05T08:31:42.708Z,67.57
2023-05-05T08:34:10.312Z,66.54
2023-05-05T08:36:38.959Z,64.36
2023-05-05T08:39:07.996Z,64.55
2023-05-05T08:41:36.492Z,64.69
2023-05-05T08:44:04.093Z,65.49
2023-05-05T08:46:33.991Z,64.61
2023-05-05T08:49:04.392Z,65.74
2023-05-05T08:51:39.404Z,65.48
2023-05-05T08:54:10.002Z,64.69
2023-05-05T08:56:42.284Z,63.83
2023-05-05T08:59:12.085Z,63.41
2023-05-05T09:01:42.756Z,62.64
2023-05-05T09:04:10.802Z,63.05
2023-05-05T09:06:40.835Z,63.47
2023-05-05T09:09:10.044Z,63.96
2023-05-05T09:11:38.976Z,64.17
2023-05-05T09:14:06.588Z,63.76
2023-05-05T09:16:34.202Z,64.31
2023-05-05T09:19:05.085Z,66.58
2023-05-05T09:21:33.315Z,65.56
2023-05-05T09:24:08.607Z,64.41
2023-05-05T09:26:39.397Z,62.51
2023-05-05T09:29:07.966Z,62.32
2023-05-05T09:31:37.997Z,62.26
2023-05-05T09:34:17.508Z,62.43
2023-05-05T09:36:48.808Z,60.96
2023-05-05T09:39:19.050Z,61.41
2023-05-05T09:41:47.145Z,60.19
2023-05-05T09:44:16.833Z,60.76
2023-05-05T09:46:52.291Z,56.50
2023-05-05T09:49:23.469Z,57.79
2023-05-05T09:51:52.736Z,58.52
2023-05-05T09:54:25.066Z,58.42
2023-05-05T09:56:54.055Z,57.49
2023-05-05T09:59:22.171Z,58.31
2023-05-05T10:01:52.173Z,57.38
2023-05-05T10:04:28.985Z,55.21
2023-05-05T10:06:59.986Z,54.84
2023-05-05T10:09:29.030Z,54.79
2023-05-05T10:11:58.703Z,55.60
2023-05-05T10:14:28.059Z,56.28
2023-05-05T10:16:56.400Z,57.34
2023-05-05T10:19:25.454Z,57.05
2023-05-05T10:22:00.968Z,55.32
2023-05-05T10:24:40.072Z,55.10
2023-05-05T10:30:07.737Z,54.79
2023-05-05T10:35:17.212Z,55.64
2023-05-05T10:37:48.973Z,52.49
2023-05-05T10:40:21.991Z,53.54
2023-05-05T10:42:51.248Z,54.24
2023-05-05T10:45:18.876Z,54.74
2023-05-05T10:47:46.778Z,55.02
2023-05-05T10:50:18.868Z,55.38
2023-05-05T10:52:57.560Z,56.62
2023-05-05T10:55:33.142Z,57.85
2023-05-05T10:58:01.635Z,57.76
2023-05-05T11:00:53.928Z,57.76
2023-05-05T11:03:25.678Z,59.02
2023-05-05T11:06:13.484Z,57.74
2023-05-05T11:08:44.523Z,57.27
2023-05-05T11:11:13.590Z,57.33
2023-05-05T11:13:42.482Z,56.70
2023-05-05T11:16:45.649Z,56.69
2023-05-05T11:19:55.867Z,57.20
2023-05-05T11:22:23.449Z,56.48
2023-05-05T11:24:53.981Z,57.43
2023-05-05T11:27:22.094Z,57.28
2023-05-05T11:30:10.630Z,57.92
2023-05-05T11:32:38.515Z,57.22
2023-05-05T11:35:08.816Z,57.01
2023-05-05T11:37:39.005Z,56.61
2023-05-05T11:40:22.005Z,56.60
2023-05-05T11:42:50.576Z,56.41
2023-05-05T11:45:22.749Z,54.98
2023-05-05T11:47:50.692Z,55.38
2023-05-05T11:50:21.549Z,55.75
2023-05-05T11:52:49.503Z,55.91
2023-05-05T11:55:25.695Z,55.93
2023-05-05T11:57:53.943Z,56.41
2023-05-05T12:00:33.541Z,56.25
2023-05-05T12:03:26.455Z,55.64
2023-05-05T12:05:57.079Z,55.90
2023-05-05T12:08:25.418Z,55.72
2023-05-05T12:10:55.013Z,55.29
2023-05-05T12:13:23.656Z,55.91
2023-05-05T12:15:52.132Z,55.51
2023-05-05T12:18:21.125Z,54.67
2023-05-05T12:20:52.797Z,51.46
2023-05-05T12:23:20.625Z,51.13
2023-05-05T12:25:50.001Z,52.83
2023-05-05T12:28:18.985Z,54.26
2023-05-05T12:30:57.474Z,54.43
2023-05-05T12:33:25.332Z,54.66
2023-05-05T12:35:53.050Z,53.45
2023-05-05T12:38:20.657Z,53.41
2023-05-05T12:40:51.997Z,53.42
2023-05-05T12:43:34.102Z,53.38
2023-05-05T12:46:07.572Z,52.56
2023-05-05T12:48:38.748Z,52.54
2023-05-05T12:51:18.141Z,52.58
2023-05-05T12:53:47.361Z,52.71
2023-05-05T12:56:35.055Z,53.01
2023-05-05T12:59:06.549Z,53.03
2023-05-05T13:01:34.902Z,53.86
2023-05-05T13:04:11.174Z,54.40
2023-05-05T13:06:39.573Z,54.74
2023-05-05T13:09:22.827Z,55.04
2023-05-05T13:11:50.576Z,54.80
2023-05-05T13:14:20.991Z,54.42
2023-05-05T13:16:48.814Z,53.57
2023-05-05T13:19:16.544Z,54.22
2023-05-05T13:21:45.562Z,54.57
2023-05-05T13:24:28.118Z,54.83
2023-05-05T13:26:59.253Z,54.57
2023-05-05T13:29:31.341Z,54.52
2023-05-05T13:32:00.690Z,54.64
2023-05-05T13:34:29.143Z,54.96
2023-05-05T13:36:57.588Z,55.12
2023-05-05T13:39:26.566Z,55.70
2023-05-05T13:41:54.760Z,58.20
2023-05-05T13:44:22.348Z,60.61
2023-05-05T13:46:51.318Z,62.51
2023-05-05T13:49:20.000Z,65.19
2023-05-05T13:51:47.706Z,67.14
2023-05-05T13:54:15.342Z,69.59
2023-05-05T13:56:44.024Z,71.87
2023-05-05T13:59:11.631Z,73.46
2023-05-05T14:01:39.485Z,73.64
2023-05-05T14:04:09.089Z,75.65
2023-05-05T14:06:36.845Z,76.93
2023-05-05T14:09:06.209Z,78.96
2023-05-05T14:11:34.601Z,80.70
2023-05-05T14:14:02.762Z,81.62
2023-05-05T14:16:30.427Z,82.44
2023-05-05T14:18:58.066Z,83.35
2023-05-05T14:21:27.814Z,83.71
2023-05-05T14:23:56.029Z,84.36
2023-05-05T14:26:24.497Z,85.86
2023-05-05T14:28:52.093Z,87.26
2023-05-05T14:31:20.109Z,87.68
2023-05-05T14:33:48.017Z,88.57
2023-05-05T14:36:15.614Z,89.71
2023-05-05T14:38:45.121Z,89.50
2023-05-05T14:41:14.026Z,89.91
2023-05-05T14:43:42.879Z,90.40
2023-05-05T14:46:10.558Z,91.98
2023-05-05T14:48:38.261Z,92.12
2023-05-05T14:51:06.039Z,92.63
2023-05-05T14:53:33.720Z,93.18
2023-05-05T14:56:03.091Z,94.36
2023-05-05T14:58:31.700Z,95.57
2023-05-05T15:01:00.339Z,96.56
2023-05-05T15:03:28.881Z,97.68
2023-05-05T15:05:56.507Z,97.42
2023-05-05T15:08:24.383Z,97.38
2023-05-05T15:10:52.095Z,97.52
2023-05-05T15:13:21.139Z,97.88
2023-05-05T15:15:49.913Z,98.88
2023-05-05T15:18:17.922Z,98.52
2023-05-05T15:20:45.512Z,99.39
2023-05-05T15:23:13.145Z,100.00
2023-05-05T15:25:40.729Z,100.00
2023-05-05T15:28:08.335Z,100.00
2023-05-05T15:30:37.343Z,100.00
2023-05-05T15:33:05.066Z,100.00
2023-05-05T15:35:32.710Z,100.00
2023-05-05T15:38:00.447Z,100.00
2023-05-05T15:40:28.112Z,100.00
2023-05-05T15:42:56.685Z,100.00
2023-05-05T15:45:24.921Z,100.00
2023-05-05T15:47:54.768Z,100.00
2023-05-05T15:50:23.274Z,100.00
2023-05-05T15:52:50.917Z,100.00
2023-05-05T15:55:20.211Z,100.00
2023-05-05T15:57:48.416Z,100.00
2023-05-05T16:00:42.026Z,100.00
2023-05-05T16:03:11.518Z,100.00
2023-05-05T16:05:39.537Z,100.00
2023-05-05T16:08:09.877Z,100.00
2023-05-05T16:10:37.713Z,100.00
2023-05-05T16:13:05.590Z,100.00
2023-05-05T16:15:33.192Z,100.00
2023-05-05T16:18:00.812Z,100.00
2023-05-05T16:20:29.978Z,100.00
2023-05-05T16:22:57.843Z,100.00
2023-05-05T16:25:25.519Z,100.00
2023-05-05T16:27:56.454Z,100.00
2023-05-05T16:30:24.475Z,100.00
2023-05-05T16:32:52.293Z,100.00
2023-05-05T16:35:20.203Z,100.00
2023-05-05T16:37:49.912Z,100.00
2023-05-05T16:40:18.036Z,100.00
2023-05-05T16:42:45.808Z,100.00
2023-05-05T16:45:13.492Z,100.00
2023-05-05T16:47:41.954Z,100.00
2023-05-05T16:50:10.188Z,100.00
2023-05-05T16:52:37.833Z,100.00
2023-05-05T16:55:07.595Z,100.00
2023-05-05T16:57:35.474Z,100.00
2023-05-05T17:00:03.254Z,100.00
2023-05-05T17:02:30.965Z,100.00
2023-05-05T17:04:58.656Z,100.00
2023-05-05T17:07:26.425Z,100.00
2023-05-05T17:09:55.678Z,100.00
2023-05-05T17:12:24.608Z,100.00
2023-05-05T17:14:52.261Z,100.00
2023-05-05T17:17:19.965Z,100.00
2023-05-05T17:19:47.616Z,100.00
2023-05-05T17:22:16.396Z,100.00
2023-05-05T17:24:43.976Z,100.00
2023-05-05T17:27:12.652Z,100.00
2023-05-05T17:29:41.668Z,100.00
2023-05-05T17:32:10.078Z,100.00
2023-05-05T17:34:37.744Z,100.00
2023-05-05T17:37:05.371Z,100.00
2023-05-05T17:39:33.480Z,100.00
2023-05-05T17:42:01.123Z,100.00
2023-05-05T17:44:28.916Z,100.00
2023-05-05T17:46:59.035Z,100.00
2023-05-05T17:49:26.780Z,100.00
2023-05-05T17:51:54.395Z,100.00
2023-05-05T17:54:21.993Z,100.00
2023-05-05T17:56:49.593Z,100.00
2023-05-05T17:59:18.038Z,100.00
2023-05-05T18:01:45.843Z,100.00
2023-05-05T18:04:14.916Z,100.00
2023-05-05T18:06:42.498Z,100.00
2023-05-05T18:09:11.258Z,100.00
2023-05-05T18:11:38.972Z,100.00
2023-05-05T18:14:06.592Z,100.00
2023-05-05T18:16:34.153Z,100.00
2023-05-05T18:19:02.445Z,100.00
2023-05-05T18:21:31.931Z,100.00
2023-05-05T18:24:11.474Z,100.00
2023-05-05T18:26:48.599Z,100.00
2023-05-05T18:29:16.462Z,100.00
2023-05-05T18:31:44.570Z,100.00
2023-05-05T18:34:12.306Z,100.00
2023-05-05T18:36:41.296Z,100.00
2023-05-05T18:39:08.849Z,100.00
2023-05-05T18:41:36.987Z,100.00
2023-05-05T18:44:04.801Z,100.00
2023-05-05T18:46:33.068Z,100.00
2023-05-05T18:49:01.176Z,100.00
2023-05-05T18:51:28.917Z,100.00
2023-05-05T18:53:57.950Z,100.00
2023-05-05T18:56:25.578Z,100.00
2023-05-05T18:58:53.257Z,100.00
2023-05-05T19:01:21.620Z,100.00
2023-05-05T19:03:49.741Z,100.00
2023-05-05T19:06:17.917Z,100.00
2023-05-05T19:08:47.128Z,100.00
2023-05-05T19:11:16.879Z,100.00
2023-05-05T19:13:44.525Z,100.00
2023-05-05T19:16:16.136Z,100.00
2023-05-05T19:18:43.930Z,100.00
2023-05-05T19:21:11.633Z,100.00
2023-05-05T19:23:39.377Z,100.00
2023-05-05T19:26:06.950Z,100.00
2023-05-05T19:28:36.115Z,100.00
2023-05-05T19:31:03.912Z,100.00
2023-05-05T19:33:31.484Z,100.00
2023-05-05T19:35:59.550Z,100.00
2023-05-05T19:38:29.045Z,100.00
2023-05-05T19:40:56.626Z,100.00
2023-05-05T19:43:24.176Z,100.00
2023-05-05T19:45:54.089Z,100.00
2023-05-05T19:48:21.936Z,100.00
2023-05-05T19:50:49.635Z,100.00
2023-05-05T19:53:17.554Z,100.00
2023-05-05T19:55:45.991Z,100.00
2023-05-05T19:58:15.035Z,100.00
2023-05-05T20:00:42.695Z,100.00
2023-05-05T20:03:11.986Z,100.00
2023-05-05T20:05:40.229Z,100.00
2023-05-05T20:08:07.941Z,100.00
2023-05-05T20:10:36.483Z,100.00
2023-05-05T20:13:04.202Z,100.00
2023-05-05T20:15:33.229Z,100.00
2023-05-05T20:18:00.972Z,100.00
2023-05-05T20:20:30.398Z,100.00
2023-05-05T20:22:57.969Z,100.00
2023-05-05T20:25:25.609Z,100.00
2023-05-05T20:27:53.189Z,100.00
2023-05-05T20:30:20.877Z,100.00
2023-05-05T20:32:48.444Z,100.00
2023-05-05T20:35:16.201Z,100.00
2023-05-05T20:37:46.072Z,100.00
2023-05-05T20:40:15.052Z,100.00
2023-05-05T20:42:42.740Z,100.00
2023-05-05T20:45:12.053Z,100.00
2023-05-05T20:47:40.196Z,100.00
2023-05-05T20:50:09.079Z,100.00
2023-05-05T20:52:37.055Z,100.00
2023-05-05T20:55:07.182Z,100.00
2023-05-05T20:57:34.815Z,100.00
2023-05-05T21:00:02.623Z,100.00
2023-05-05T21:02:32.207Z,100.00
2023-05-05T21:05:02.795Z,100.00
2023-05-05T21:07:31.160Z,100.00
2023-05-05T21:09:58.789Z,100.00
2023-05-05T21:12:28.059Z,100.00
2023-05-05T21:14:58.597Z,100.00
2023-05-05T21:17:28.085Z,100.00
2023-05-05T21:19:57.376Z,100.00
2023-05-05T21:22:25.186Z,100.00
2023-05-05T21:24:53.455Z,100.00
2023-05-05T21:27:21.488Z,100.00
2023-05-05T21:29:52.033Z,100.00
2023-05-05T21:32:21.203Z,100.00
2023-05-05T21:34:48.879Z,100.00
2023-05-05T21:37:16.452Z,100.00
2023-05-05T21:39:44.576Z,100.00
2023-05-05T21:42:15.043Z,100.00
2023-05-05T21:44:43.138Z,100.00
2023-05-05T21:47:12.424Z,100.00
2023-05-05T21:49:41.093Z,100.00
2023-05-05T21:52:08.660Z,100.00
2023-05-05T21:54:36.587Z,100.00
2023-05-05T21:57:04.788Z,100.00
2023-05-05T21:59:32.560Z,100.00
2023-05-05T22:02:04.175Z,100.00
2023-05-05T22:04:34.063Z,100.00
2023-05-05T22:07:02.057Z,100.00
2023-05-05T22:09:29.657Z,100.00
2023-05-05T22:11:58.444Z,100.00
2023-05-05T22:14:27.557Z,100.00
2023-05-05T22:16:55.722Z,100.00
2023-05-05T22:19:23.724Z,100.00
2023-05-05T22:21:53.299Z,100.00
2023-05-05T22:24:21.822Z,100.00
2023-05-05T22:26:49.385Z,100.00
2023-05-05T22:29:16.976Z,100.00
2023-05-05T22:31:44.582Z,100.00
2023-05-05T22:34:12.575Z,100.00
2023-05-05T22:36:40.179Z,100.00
2023-05-05T22:39:10.064Z,100.00
2023-05-05T22:41:38.305Z,100.00
2023-05-05T22:44:06.847Z,100.00
2023-05-05T22:46:34.687Z,100.00
2023-05-05T22:49:02.337Z,100.00
2023-05-05T22:51:30.239Z,100.00
2023-05-05T22:54:00.586Z,100.00
2023-05-05T22:56:30.137Z,100.00
2023-05-05T22:58:58.363Z,100.00
2023-05-05T23:01:26.266Z,100.00
2023-05-05T23:03:53.970Z,100.00
2023-05-05T23:06:47.174Z,100.00
2023-05-05T23:09:14.793Z,100.00
2023-05-05T23:11:43.696Z,100.00
2023-05-05T23:14:11.371Z,100.00
2023-05-05T23:16:39.075Z,100.00
2023-05-05T23:19:07.564Z,100.00
2023-05-05T23:21:49.408Z,100.00
2023-05-05T23:24:21.708Z,100.00
2023-05-05T23:26:51.955Z,100.00
2023-05-05T23:29:19.971Z,100.00
2023-05-05T23:31:47.865Z,100.00
2023-05-05T23:34:16.162Z,100.00
2023-05-05T23:36:44.065Z,100.00
2023-05-05T23:39:11.705Z,100.00
2023-05-05T23:41:41.141Z,100.00
2023-05-05T23:44:11.145Z,100.00
2023-05-05T23:46:39.212Z,100.00
2023-05-05T23:49:06.886Z,100.00
2023-05-05T23:51:36.057Z,100.00
2023-05-05T23:54:03.622Z,100.00
2023-05-05T23:56:31.443Z,100.00
2023-05-05T23:58:59.398Z,100.00
